Time;durP1;ratioP1;P1;durP2;ratioP2;P2;SDS_P1;SDS_P2;PMS_P1;PMS_P2;Temp;Humidity;BMP_temperature;BMP_pressure;BME280_temperature;BME280_humidity;BME280_pressure;Samples;Min_cycle;Max_cycle;Signal;HPM_P1;HPM_P2
2022/03/22 00:01:51;;;;;;;115.80;49.88;;;;;;;;;;4954377;29;20027;-62
2022/03/22 00:04:18;;;;;;;117.70;50.88;;;;;;;;;;4954277;29;20035;-62
2022/03/22 00:06:44;;;;;;;117.43;49.85;;;;;;;;;;4954084;29;20372;-62
2022/03/22 06:21:49;;;;;;;77.78;43.05;;;;;;;;;;5128935;27;20387;-60
2022/03/22 06:24:15;;;;;;;79.68;42.55;;;;;;;;;;5128750;27;20023;-61
2022/03/22 06:26:41;;;;;;;82.50;42.42;;;;;;;;;;5128792;27;20023;-61
2022/03/22 06:29:07;;;;;;;84.43;41.00;;;;;;;;;;5125692;27;20391;-62
2022/03/22 06:31:35;;;;;;;72.78;39.90;;;;;;;;;;5128682;27;20486;-62
2022/03/22 06:34:01;;;;;;;80.63;40.72;;;;;;;;;;5128311;27;20034;-61
2022/03/22 06:36:28;;;;;;;77.38;40.15;;;;;;;;;;5129156;27;20031;-61
2022/03/22 06:38:54;;;;;;;83.25;41.63;;;;;;;;;;5128288;27;20378;-61
2022/03/22 06:41:20;;;;;;;72.43;39.13;;;;;;;;;;5128608;27;20031;-61
2022/03/22 06:43:46;;;;;;;78.53;38.97;;;;;;;;;;5128793;27;20054;-61
2022/03/22 06:46:13;;;;;;;75.20;38.25;;;;;;;;;;5128983;27;20035;-61
2022/03/22 06:48:39;;;;;;;74.55;38.70;;;;;;;;;;5128330;27;20023;-61
2022/03/22 06:51:05;;;;;;;70.05;38.50;;;;;;;;;;5127839;27;20082;-60
2022/03/22 06:53:31;;;;;;;74.78;39.63;;;;;;;;;;5128188;27;20030;-60
2022/03/22 06:55:58;;;;;;;76.00;38.40;;;;;;;;;;5128143;27;20027;-61
2022/03/22 06:58:25;;;;;;;82.38;40.22;;;;;;;;;;5128325;27;20016;-60
2022/03/22 07:00:55;;;;;;;70.40;38.22;;;;;;;;;;5126723;28;20047;-60
2022/03/22 07:03:21;;;;;;;76.45;36.63;;;;;;;;;;5128053;27;20047;-60
2022/03/22 07:05:47;;;;;;;71.97;38.55;;;;;;;;;;5128090;27;20106;-61
2022/03/22 07:08:13;;;;;;;72.68;37.03;;;;;;;;;;5127961;27;20065;-61
2022/03/22 07:10:40;;;;;;;75.47;36.08;;;;;;;;;;5128049;27;20062;-61
2022/03/22 07:13:09;;;;;;;71.97;37.67;;;;;;;;;;5127926;27;20024;-61
2022/03/22 07:15:36;;;;;;;71.90;39.38;;;;;;;;;;5127564;27;20104;-60
2022/03/22 07:18:05;;;;;;;67.07;38.33;;;;;;;;;;5127622;27;20425;-61
2022/03/22 07:20:31;;;;;;;64.32;34.03;;;;;;;;;;5116371;27;20043;-60
2022/03/22 07:22:57;;;;;;;67.00;35.17;;;;;;;;;;5093172;28;20039;-60
2022/03/22 07:25:23;;;;;;;62.03;33.08;;;;;;;;;;5093208;28;20024;-60
2022/03/22 07:27:49;;;;;;;61.95;31.02;;;;;;;;;;5093507;28;20113;-62
2022/03/22 07:30:16;;;;;;;62.08;32.08;;;;;;;;;;5092791;28;20040;-60
2022/03/22 07:32:45;;;;;;;62.95;32.63;;;;;;;;;;5093307;28;20046;-59
2022/03/22 07:35:12;;;;;;;62.33;32.17;;;;;;;;;;5074677;28;20028;-61
2022/03/22 07:37:38;;;;;;;59.58;30.10;;;;;;;;;;5093190;28;20060;-61
2022/03/22 07:40:06;;;;;;;54.60;28.58;;;;;;;;;;5092998;28;20034;-59
2022/03/22 07:42:32;;;;;;;55.20;28.80;;;;;;;;;;5093007;28;20045;-62
2022/03/22 07:45:01;;;;;;;55.03;30.23;;;;;;;;;;5089440;28;20111;-61
2022/03/22 07:47:28;;;;;;;55.90;28.73;;;;;;;;;;5089618;28;20012;-60
2022/03/22 07:53:00;;;;;;;48.85;26.75;;;;;;;;;;5091362;28;20043;-59
2022/03/22 07:55:28;;;;;;;55.25;29.65;;;;;;;;;;5089448;28;20044;-61
2022/03/22 07:57:54;;;;;;;57.92;30.02;;;;;;;;;;5091725;28;20012;-60
2022/03/22 08:00:20;;;;;;;55.05;29.77;;;;;;;;;;5091225;28;20099;-60
2022/03/22 08:02:51;;;;;;;74.07;36.10;;;;;;;;;;5091506;28;20058;-61
2022/03/22 08:05:17;;;;;;;104.45;54.10;;;;;;;;;;5091230;28;20100;-59
2022/03/22 08:07:43;;;;;;;78.32;45.28;;;;;;;;;;5091026;28;20438;-59
2022/03/22 08:10:09;;;;;;;54.60;31.13;;;;;;;;;;5091391;28;20024;-61
2022/03/22 08:12:35;;;;;;;58.97;32.60;;;;;;;;;;5091491;28;20018;-61
2022/03/22 08:15:02;;;;;;;52.67;29.95;;;;;;;;;;5091588;28;20030;-61
2022/03/22 08:17:28;;;;;;;53.45;32.13;;;;;;;;;;5091136;28;20032;-62
2022/03/22 08:19:55;;;;;;;52.30;30.38;;;;;;;;;;5091945;28;20052;-61
2022/03/22 08:22:21;;;;;;;55.25;28.75;;;;;;;;;;5091577;28;20390;-61
2022/03/22 08:24:47;;;;;;;58.05;29.85;;;;;;;;;;5083915;28;20069;-62
2022/03/22 08:27:13;;;;;;;50.40;27.70;;;;;;;;;;5088817;28;20028;-62
2022/03/22 08:29:39;;;;;;;52.22;28.67;;;;;;;;;;5082262;28;20028;-61
2022/03/22 08:32:06;;;;;;;55.42;29.40;;;;;;;;;;5099721;28;20019;-62
2022/03/22 08:34:32;;;;;;;56.13;30.10;;;;;;;;;;5101227;28;20020;-62
2022/03/22 08:36:58;;;;;;;55.95;29.70;;;;;;;;;;5100398;28;20104;-62
2022/03/22 08:39:24;;;;;;;50.70;27.80;;;;;;;;;;5098104;28;20024;-61
2022/03/22 08:41:52;;;;;;;56.22;30.75;;;;;;;;;;5096404;28;20055;-62
2022/03/22 08:44:20;;;;;;;57.30;31.35;;;;;;;;;;5096048;28;20031;-62
2022/03/22 08:46:46;;;;;;;60.80;30.95;;;;;;;;;;5097066;28;20447;-62
2022/03/22 08:49:12;;;;;;;149.77;75.00;;;;;;;;;;5091273;28;20032;-61
2022/03/22 08:51:38;;;;;;;79.22;39.97;;;;;;;;;;5086154;28;20033;-61
2022/03/22 08:54:06;;;;;;;69.68;39.28;;;;;;;;;;5079507;28;20035;-61
2022/03/22 08:56:32;;;;;;;60.97;33.70;;;;;;;;;;5091969;28;20789;-61
2022/03/22 08:59:00;;;;;;;61.53;33.53;;;;;;;;;;5091566;28;20028;-61
2022/03/22 09:01:30;;;;;;;61.15;33.53;;;;;;;;;;5091724;28;20491;-61
2022/03/22 09:06:41;;;;;;;54.15;30.15;;;;;;;;;;5091755;28;20075;-62
2022/03/22 09:09:10;;;;;;;60.63;31.77;;;;;;;;;;5091178;28;20099;-62
2022/03/22 09:11:39;;;;;;;63.03;29.52;;;;;;;;;;5091476;28;20032;-61
2022/03/22 09:14:05;;;;;;;64.25;33.53;;;;;;;;;;5090804;28;20020;-62
2022/03/22 09:16:32;;;;;;;63.95;33.45;;;;;;;;;;5091496;28;20531;-61
2022/03/22 09:18:58;;;;;;;60.65;32.90;;;;;;;;;;5091117;28;20394;-61
2022/03/22 09:21:25;;;;;;;61.45;31.77;;;;;;;;;;5090462;28;20055;-61
2022/03/22 09:23:51;;;;;;;60.22;32.40;;;;;;;;;;5091348;28;20039;-61
2022/03/22 09:26:17;;;;;;;62.63;31.55;;;;;;;;;;5091049;28;20024;-60
2022/03/22 09:28:43;;;;;;;60.03;33.03;;;;;;;;;;5091157;28;20028;-60
2022/03/22 09:31:09;;;;;;;78.20;36.20;;;;;;;;;;5091244;28;20071;-61
2022/03/22 09:33:35;;;;;;;64.40;33.13;;;;;;;;;;5090994;28;20428;-61
2022/03/22 09:36:01;;;;;;;62.08;32.10;;;;;;;;;;5091290;28;20459;-60
2022/03/22 09:38:28;;;;;;;61.20;31.17;;;;;;;;;;5091187;28;20100;-62
2022/03/22 09:40:54;;;;;;;55.55;30.70;;;;;;;;;;5091132;28;20020;-62
2022/03/22 09:43:24;;;;;;;56.08;30.83;;;;;;;;;;5090862;28;20078;-61
2022/03/22 09:45:51;;;;;;;49.67;28.48;;;;;;;;;;5090790;28;20050;-62
2022/03/22 09:48:17;;;;;;;49.08;27.95;;;;;;;;;;5090850;28;20093;-62
2022/03/22 09:53:29;;;;;;;55.92;28.65;;;;;;;;;;5091362;28;20100;-63
2022/03/22 09:55:55;;;;;;;60.13;30.48;;;;;;;;;;5090919;28;20028;-63
2022/03/22 09:58:21;;;;;;;90.22;46.20;;;;;;;;;;5090712;28;20039;-62
2022/03/22 10:00:47;;;;;;;59.25;31.80;;;;;;;;;;5090678;28;20086;-62
2022/03/22 10:03:20;;;;;;;53.88;28.23;;;;;;;;;;5090700;28;20059;-62
2022/03/22 10:05:57;;;;;;;52.42;29.90;;;;;;;;;;5090977;28;20024;-63
2022/03/22 10:08:24;;;;;;;50.95;28.55;;;;;;;;;;5089597;28;20048;-62
2022/03/22 10:10:58;;;;;;;53.13;29.63;;;;;;;;;;5090554;28;20032;-62
2022/03/22 10:13:24;;;;;;;49.35;27.73;;;;;;;;;;5090249;28;20027;-61
2022/03/22 10:15:50;;;;;;;45.60;26.38;;;;;;;;;;5090264;28;20422;-61
2022/03/22 10:18:23;;;;;;;45.05;26.42;;;;;;;;;;5090376;28;20130;-61
2022/03/22 10:20:57;;;;;;;44.80;25.08;;;;;;;;;;5090405;28;20044;-62
2022/03/22 10:23:23;;;;;;;42.53;25.40;;;;;;;;;;5090473;28;20028;-62
2022/03/22 10:25:49;;;;;;;49.83;27.05;;;;;;;;;;5090525;28;20076;-62
2022/03/22 10:28:17;;;;;;;39.72;23.65;;;;;;;;;;5090374;28;20035;-62
2022/03/22 10:30:43;;;;;;;39.33;22.55;;;;;;;;;;5089862;28;20127;-62
2022/03/22 10:33:11;;;;;;;37.00;20.33;;;;;;;;;;5090421;28;20024;-62
2022/03/22 10:35:37;;;;;;;38.80;21.17;;;;;;;;;;5090597;28;20024;-62
2022/03/22 10:38:07;;;;;;;35.47;21.10;;;;;;;;;;5090302;28;20024;-62
2022/03/22 10:40:35;;;;;;;33.35;20.20;;;;;;;;;;5090120;28;20028;-61
2022/03/22 10:43:08;;;;;;;42.33;20.33;;;;;;;;;;5090300;28;20471;-61
2022/03/22 10:46:01;;;;;;;60.53;31.52;;;;;;;;;;5089854;28;20028;-60
2022/03/22 10:48:30;;;;;;;29.50;18.67;;;;;;;;;;5088360;28;20043;-61
2022/03/22 10:51:00;;;;;;;32.85;17.15;;;;;;;;;;5089946;28;20090;-62
2022/03/22 10:53:27;;;;;;;35.30;20.23;;;;;;;;;;5090030;28;20030;-61
2022/03/22 10:55:54;;;;;;;27.35;17.50;;;;;;;;;;5090289;28;20033;-62
2022/03/22 10:58:21;;;;;;;42.28;22.73;;;;;;;;;;5093997;28;20024;-61
2022/03/22 11:00:48;;;;;;;39.72;19.73;;;;;;;;;;5093959;28;20103;-62
2022/03/22 11:03:15;;;;;;;28.20;16.90;;;;;;;;;;5093870;28;20032;-61
2022/03/22 11:05:41;;;;;;;32.90;19.65;;;;;;;;;;5093934;28;20024;-62
2022/03/22 11:08:08;;;;;;;42.33;24.13;;;;;;;;;;5092628;28;20024;-61
2022/03/22 11:10:34;;;;;;;39.60;22.83;;;;;;;;;;5093200;28;20032;-62
2022/03/22 11:13:01;;;;;;;27.27;16.40;;;;;;;;;;5093107;28;20028;-61
2022/03/22 11:15:28;;;;;;;23.13;13.73;;;;;;;;;;5093481;28;20028;-60
2022/03/22 11:17:55;;;;;;;27.38;15.93;;;;;;;;;;5090255;28;20116;-61
2022/03/22 11:20:23;;;;;;;28.20;15.63;;;;;;;;;;5091851;28;20054;-61
2022/03/22 11:22:50;;;;;;;25.83;14.95;;;;;;;;;;5092725;28;20032;-62
2022/03/22 11:25:20;;;;;;;28.95;15.05;;;;;;;;;;5092935;28;20052;-61
2022/03/22 11:28:00;;;;;;;25.90;15.77;;;;;;;;;;5093485;28;20051;-62
2022/03/22 11:30:27;;;;;;;24.90;14.63;;;;;;;;;;5092371;28;20491;-66
2022/03/22 11:35:50;;;;;;;24.83;13.98;;;;;;;;;;5050116;28;20424;-62
2022/03/22 11:38:35;;;;;;;24.20;14.43;;;;;;;;;;5050113;28;20025;-62
2022/03/22 11:43:47;;;;;;;22.17;13.27;;;;;;;;;;5049690;28;20036;-62
2022/03/22 11:46:13;;;;;;;24.65;14.20;;;;;;;;;;5050040;28;20041;-62
2022/03/22 11:48:39;;;;;;;20.90;13.07;;;;;;;;;;5047119;28;20025;-63
2022/03/22 11:51:06;;;;;;;24.27;12.93;;;;;;;;;;5050233;28;20055;-62
2022/03/22 11:53:42;;;;;;;24.25;13.93;;;;;;;;;;5050501;28;20067;-62
2022/03/22 11:56:09;;;;;;;21.83;12.77;;;;;;;;;;5050533;28;20048;-62
2022/03/22 11:58:35;;;;;;;22.25;12.68;;;;;;;;;;5050407;28;20461;-63
2022/03/22 12:01:01;;;;;;;20.63;11.75;;;;;;;;;;5050432;28;20037;-61
2022/03/22 12:03:35;;;;;;;19.50;9.02;;;;;;;;;;5050397;28;20068;-61
2022/03/22 12:06:11;;;;;;;18.65;10.43;;;;;;;;;;5048901;28;20120;-61
2022/03/22 12:08:37;;;;;;;21.77;12.00;;;;;;;;;;5047935;28;20037;-60
2022/03/22 12:11:04;;;;;;;24.35;12.60;;;;;;;;;;5049628;28;20114;-61
2022/03/22 12:13:33;;;;;;;25.85;11.88;;;;;;;;;;5092327;28;20468;-62
2022/03/22 12:16:00;;;;;;;21.90;10.52;;;;;;;;;;5091835;28;20437;-60
2022/03/22 12:18:33;;;;;;;17.42;11.02;;;;;;;;;;5092421;28;20024;-60
2022/03/22 12:21:00;;;;;;;18.85;11.00;;;;;;;;;;5092013;28;20064;-60
2022/03/22 12:23:26;;;;;;;26.75;12.50;;;;;;;;;;5091794;28;20020;-60
2022/03/22 12:25:52;;;;;;;22.90;12.00;;;;;;;;;;5091985;28;20035;-60
2022/03/22 12:28:19;;;;;;;19.33;10.00;;;;;;;;;;5092193;28;20414;-60
2022/03/22 12:30:45;;;;;;;19.50;11.15;;;;;;;;;;5092220;28;20123;-60
2022/03/22 12:33:18;;;;;;;19.08;10.27;;;;;;;;;;5092421;28;20076;-61
2022/03/22 12:35:45;;;;;;;20.45;11.60;;;;;;;;;;5092072;28;20035;-61
2022/03/22 12:38:11;;;;;;;20.73;10.80;;;;;;;;;;5092155;28;20012;-61
2022/03/22 12:40:38;;;;;;;28.13;13.07;;;;;;;;;;5092114;28;20032;-61
2022/03/22 12:43:06;;;;;;;19.15;10.75;;;;;;;;;;5092005;28;20489;-61
2022/03/22 12:45:33;;;;;;;21.30;11.27;;;;;;;;;;5091866;28;20116;-62
2022/03/22 12:47:59;;;;;;;24.90;12.75;;;;;;;;;;5091943;28;20384;-61
2022/03/22 12:50:27;;;;;;;21.50;11.52;;;;;;;;;;5091680;28;20482;-61
2022/03/22 12:52:54;;;;;;;13.80;6.88;;;;;;;;;;5091934;28;20384;-61
2022/03/22 12:55:20;;;;;;;22.33;10.88;;;;;;;;;;5091515;28;20406;-60
2022/03/22 12:57:48;;;;;;;18.60;10.27;;;;;;;;;;5091904;28;20515;-60
2022/03/22 13:00:29;;;;;;;15.45;9.63;;;;;;;;;;5091569;28;20036;-60
2022/03/22 13:02:56;;;;;;;18.40;9.65;;;;;;;;;;5091591;28;20094;-60
2022/03/22 13:05:29;;;;;;;16.60;9.68;;;;;;;;;;5091746;28;20038;-60
2022/03/22 13:07:58;;;;;;;16.85;8.82;;;;;;;;;;5090461;28;20360;-61
2022/03/22 13:13:18;;;;;;;17.23;7.22;;;;;;;;;;5091601;28;20039;-60
2022/03/22 13:15:48;;;;;;;17.48;9.65;;;;;;;;;;5091609;28;20028;-60
2022/03/22 13:18:14;;;;;;;17.63;10.45;;;;;;;;;;5091627;28;20410;-60
2022/03/22 13:20:41;;;;;;;21.35;11.20;;;;;;;;;;5090803;28;20415;-61
2022/03/22 13:23:09;;;;;;;17.45;10.52;;;;;;;;;;5091616;28;20020;-61
2022/03/22 13:25:36;;;;;;;14.43;7.93;;;;;;;;;;5091158;28;20032;-61
2022/03/22 13:28:11;;;;;;;20.70;10.10;;;;;;;;;;5090690;28;20028;-60
2022/03/22 13:30:44;;;;;;;17.85;10.13;;;;;;;;;;5091181;28;20042;-60
2022/03/22 13:33:16;;;;;;;16.02;9.80;;;;;;;;;;5091086;28;20364;-61
2022/03/22 13:35:42;;;;;;;;;;;;;;;;;;5091739;28;20482;-60
2022/03/22 13:38:11;;;;;;;16.13;7.82;;;;;;;;;;5091102;28;20038;-61
2022/03/22 13:40:43;;;;;;;15.20;9.70;;;;;;;;;;5090962;28;20088;-60
2022/03/22 13:43:10;;;;;;;17.98;9.40;;;;;;;;;;5091059;28;20068;-61
2022/03/22 13:45:37;;;;;;;15.85;9.55;;;;;;;;;;5091177;28;20099;-61
2022/03/22 13:48:11;;;;;;;17.00;9.38;;;;;;;;;;5091044;28;20048;-61
2022/03/22 13:50:37;;;;;;;18.67;10.25;;;;;;;;;;5090760;28;20123;-61
2022/03/22 13:53:05;;;;;;;20.50;10.65;;;;;;;;;;5091173;28;20024;-61
2022/03/22 13:55:31;;;;;;;21.38;9.75;;;;;;;;;;5091106;28;20043;-62
2022/03/22 13:57:59;;;;;;;14.85;9.02;;;;;;;;;;5090727;28;20036;-60
2022/03/22 14:00:26;;;;;;;24.83;10.88;;;;;;;;;;5090864;28;20480;-63
2022/03/22 14:02:52;;;;;;;19.02;9.57;;;;;;;;;;5090485;28;20054;-61
2022/03/22 14:05:18;;;;;;;26.98;11.25;;;;;;;;;;5090749;28;20621;-62
2022/03/22 14:07:50;;;;;;;13.57;8.15;;;;;;;;;;5090679;28;20105;-62
2022/03/22 14:10:17;;;;;;;11.85;5.90;;;;;;;;;;5090589;28;20047;-62
2022/03/22 14:12:43;;;;;;;17.45;9.35;;;;;;;;;;5090539;28;20051;-62
2022/03/22 14:15:10;;;;;;;18.50;8.98;;;;;;;;;;5090357;28;20099;-62
2022/03/22 14:17:36;;;;;;;21.20;10.55;;;;;;;;;;5090734;28;20027;-63
2022/03/22 14:20:04;;;;;;;23.70;10.05;;;;;;;;;;5089660;28;20032;-61
2022/03/22 14:22:30;;;;;;;21.33;8.48;;;;;;;;;;5089428;28;20483;-61
2022/03/22 14:24:56;;;;;;;13.98;7.30;;;;;;;;;;5090170;28;20024;-62
2022/03/22 14:27:22;;;;;;;35.28;11.32;;;;;;;;;;5090597;28;20028;-62
2022/03/22 14:29:49;;;;;;;17.98;9.50;;;;;;;;;;5090453;28;20054;-62
2022/03/22 14:32:15;;;;;;;17.73;9.30;;;;;;;;;;5093055;28;20066;-62
2022/03/22 14:37:26;;;;;;;18.77;8.45;;;;;;;;;;5094634;28;20548;-62
2022/03/22 14:39:52;;;;;;;16.60;8.20;;;;;;;;;;5094888;28;20028;-62
2022/03/22 14:42:18;;;;;;;23.88;11.15;;;;;;;;;;5094530;28;20027;-62
2022/03/22 14:44:44;;;;;;;17.52;7.80;;;;;;;;;;5094288;28;20028;-61
2022/03/22 14:47:11;;;;;;;13.93;7.95;;;;;;;;;;5094184;28;20052;-62
2022/03/22 14:49:40;;;;;;;18.80;9.63;;;;;;;;;;5094207;28;20050;-62
2022/03/22 14:54:51;;;;;;;13.65;7.80;;;;;;;;;;5094287;28;20026;-62
2022/03/22 15:00:02;;;;;;;11.18;7.35;;;;;;;;;;5094218;28;20043;-62
2022/03/22 15:02:28;;;;;;;13.75;7.63;;;;;;;;;;5093953;28;20052;-62
2022/03/22 15:04:56;;;;;;;14.60;7.95;;;;;;;;;;5094087;28;20046;-62
2022/03/22 15:07:22;;;;;;;15.07;7.90;;;;;;;;;;5094036;28;20095;-62
2022/03/22 15:09:52;;;;;;;17.10;8.75;;;;;;;;;;5093239;28;20111;-62
2022/03/22 15:12:20;;;;;;;15.65;6.82;;;;;;;;;;5093577;28;20036;-62
2022/03/22 15:14:47;;;;;;;13.57;7.75;;;;;;;;;;5093328;28;20028;-61
2022/03/22 15:17:13;;;;;;;13.00;6.35;;;;;;;;;;5093117;28;20028;-60
2022/03/22 15:19:39;;;;;;;14.10;7.82;;;;;;;;;;5093424;28;20039;-60
2022/03/22 15:22:07;;;;;;;15.43;8.02;;;;;;;;;;5093890;28;20040;-61
2022/03/22 15:24:33;;;;;;;19.33;9.93;;;;;;;;;;5093918;28;20024;-61
2022/03/22 15:26:59;;;;;;;14.48;7.47;;;;;;;;;;5093990;28;20028;-61
2022/03/22 15:29:25;;;;;;;14.38;7.38;;;;;;;;;;5092947;28;20099;-61
2022/03/22 15:31:51;;;;;;;17.70;9.52;;;;;;;;;;5093602;28;20024;-60
2022/03/22 15:34:18;;;;;;;14.23;8.00;;;;;;;;;;5093678;28;20024;-60
2022/03/22 15:36:44;;;;;;;16.30;8.57;;;;;;;;;;5082642;28;20056;-60
2022/03/22 15:39:10;;;;;;;12.40;7.90;;;;;;;;;;5079152;28;20016;-61
2022/03/22 15:41:36;;;;;;;16.58;8.80;;;;;;;;;;5082590;28;20088;-61
2022/03/22 15:44:02;;;;;;;14.13;7.95;;;;;;;;;;5086075;28;20024;-61
2022/03/22 15:46:28;;;;;;;16.02;8.60;;;;;;;;;;5076225;28;20042;-61
2022/03/22 15:48:54;;;;;;;17.80;8.88;;;;;;;;;;5088794;28;20020;-62
2022/03/22 15:51:20;;;;;;;14.65;8.48;;;;;;;;;;5080281;28;20040;-62
2022/03/22 15:53:46;;;;;;;19.52;10.43;;;;;;;;;;5081252;28;20021;-58
2022/03/22 15:56:13;;;;;;;19.38;9.30;;;;;;;;;;5087478;28;20154;-61
2022/03/22 15:58:39;;;;;;;22.02;10.30;;;;;;;;;;5075718;28;20093;-61
2022/03/22 16:01:06;;;;;;;18.60;9.85;;;;;;;;;;5085432;28;20388;-63
2022/03/22 16:03:32;;;;;;;17.90;9.30;;;;;;;;;;5081579;28;20016;-62
2022/03/22 16:05:58;;;;;;;16.40;8.00;;;;;;;;;;5083773;28;20022;-62
2022/03/22 16:08:24;;;;;;;18.10;10.02;;;;;;;;;;5092247;28;20020;-62
2022/03/22 16:10:50;;;;;;;13.95;7.10;;;;;;;;;;5082049;28;20105;-62
2022/03/22 16:13:16;;;;;;;18.58;8.15;;;;;;;;;;5085119;28;20111;-61
2022/03/22 16:15:44;;;;;;;15.70;9.02;;;;;;;;;;5082386;28;20032;-62
2022/03/22 16:18:10;;;;;;;13.73;7.35;;;;;;;;;;5091918;28;20076;-62
2022/03/22 16:20:36;;;;;;;16.55;8.57;;;;;;;;;;5074704;28;20048;-62
2022/03/22 16:23:03;;;;;;;17.50;9.05;;;;;;;;;;5086859;28;20130;-63
2022/03/22 16:25:29;;;;;;;16.92;7.82;;;;;;;;;;5092633;28;20023;-60
2022/03/22 16:27:55;;;;;;;17.75;8.55;;;;;;;;;;5098569;28;20066;-62
2022/03/22 16:30:22;;;;;;;18.65;9.02;;;;;;;;;;5075332;28;20032;-62
2022/03/22 16:38:18;;;;;;;16.42;8.18;;;;;;;;;;5096687;28;21046;-62
2022/03/22 16:40:45;;;;;;;17.58;8.88;;;;;;;;;;5083947;28;20089;-61
2022/03/22 16:43:18;;;;;;;20.75;9.93;;;;;;;;;;5091524;28;20024;-61
2022/03/22 16:45:45;;;;;;;18.90;10.00;;;;;;;;;;5091731;28;20476;-62
2022/03/22 16:48:13;;;;;;;24.83;11.85;;;;;;;;;;5099790;28;20487;-60
2022/03/22 16:50:40;;;;;;;22.55;11.40;;;;;;;;;;5100314;28;20067;-60
2022/03/22 16:53:07;;;;;;;23.25;11.65;;;;;;;;;;5100513;28;20108;-61
2022/03/22 16:55:34;;;;;;;28.63;13.10;;;;;;;;;;5097365;28;20494;-61
2022/03/22 16:58:00;;;;;;;24.55;11.18;;;;;;;;;;5100831;28;20020;-61
2022/03/22 17:00:26;;;;;;;19.70;10.35;;;;;;;;;;5099583;28;20675;-61
2022/03/22 17:02:52;;;;;;;22.13;12.02;;;;;;;;;;5100091;28;20019;-61
2022/03/22 17:05:20;;;;;;;19.35;10.20;;;;;;;;;;5102809;28;20055;-61
2022/03/22 17:07:46;;;;;;;18.67;9.60;;;;;;;;;;5098177;28;20027;-61
2022/03/22 17:10:12;;;;;;;18.90;11.85;;;;;;;;;;5100944;28;20020;-61
2022/03/22 17:12:39;;;;;;;39.58;19.30;;;;;;;;;;5093600;28;20119;-60
2022/03/22 17:15:06;;;;;;;35.85;16.55;;;;;;;;;;5083583;28;20349;-61
2022/03/22 17:17:34;;;;;;;30.38;15.95;;;;;;;;;;5083394;28;20032;-60
2022/03/22 17:20:03;;;;;;;24.63;13.18;;;;;;;;;;5088217;28;20075;-61
2022/03/22 17:22:29;;;;;;;35.83;19.80;;;;;;;;;;5090938;28;20043;-61
2022/03/22 17:24:55;;;;;;;31.80;16.73;;;;;;;;;;5086750;28;20357;-61
2022/03/22 17:27:21;;;;;;;24.75;14.10;;;;;;;;;;5079067;28;20072;-62
2022/03/22 17:29:47;;;;;;;28.27;14.18;;;;;;;;;;5090659;28;20042;-61
2022/03/22 17:32:13;;;;;;;32.50;14.80;;;;;;;;;;5092911;28;20383;-61
2022/03/22 17:34:41;;;;;;;22.92;11.25;;;;;;;;;;5092331;28;20024;-61
2022/03/22 17:37:08;;;;;;;23.52;11.98;;;;;;;;;;5091753;28;20081;-62
2022/03/22 17:39:34;;;;;;;28.63;12.85;;;;;;;;;;5081235;28;20039;-61
2022/03/22 17:42:02;;;;;;;30.60;12.73;;;;;;;;;;5084306;28;20043;-63
2022/03/22 17:44:29;;;;;;;30.25;13.75;;;;;;;;;;5074001;28;20244;-62
2022/03/22 17:46:55;;;;;;;27.35;14.40;;;;;;;;;;5090752;28;20084;-61
2022/03/22 17:49:21;;;;;;;33.45;16.90;;;;;;;;;;5090931;28;20049;-62
2022/03/22 17:51:47;;;;;;;26.83;14.48;;;;;;;;;;5090677;28;20059;-62
2022/03/22 17:54:13;;;;;;;33.95;18.02;;;;;;;;;;5090915;28;20023;-63
2022/03/22 17:56:39;;;;;;;51.42;27.35;;;;;;;;;;5100002;28;20036;-62
2022/03/22 17:59:05;;;;;;;55.58;28.48;;;;;;;;;;5094815;28;20016;-62
2022/03/22 18:01:32;;;;;;;69.00;33.88;;;;;;;;;;5090691;28;20027;-61
2022/03/22 18:03:58;;;;;;;72.85;36.63;;;;;;;;;;5090597;28;20491;-62
2022/03/22 18:06:24;;;;;;;51.97;28.85;;;;;;;;;;5102810;28;20043;-62
2022/03/22 18:08:50;;;;;;;60.08;29.70;;;;;;;;;;5111332;28;20038;-62
2022/03/22 18:14:01;;;;;;;47.25;26.38;;;;;;;;;;5092067;28;20039;-61
2022/03/22 18:16:27;;;;;;;46.13;25.23;;;;;;;;;;5095797;28;20055;-62
2022/03/22 18:18:53;;;;;;;73.82;43.20;;;;;;;;;;5102386;28;20020;-63
2022/03/22 18:21:20;;;;;;;43.97;23.88;;;;;;;;;;5109695;28;20096;-63
2022/03/22 18:23:46;;;;;;;54.42;27.83;;;;;;;;;;5106469;28;20491;-61
2022/03/22 18:26:12;;;;;;;39.72;22.67;;;;;;;;;;5090688;28;20551;-62
2022/03/22 18:28:42;;;;;;;43.33;25.17;;;;;;;;;;5090507;28;20386;-62
2022/03/22 18:31:09;;;;;;;44.75;24.17;;;;;;;;;;5089052;28;20036;-62
2022/03/22 18:33:35;;;;;;;72.63;40.80;;;;;;;;;;5090411;28;20012;-63
2022/03/22 18:36:02;;;;;;;45.88;24.00;;;;;;;;;;5089766;28;20024;-60
2022/03/22 18:38:28;;;;;;;52.65;27.30;;;;;;;;;;5089882;28;20027;-60
2022/03/22 18:40:54;;;;;;;58.95;30.65;;;;;;;;;;5089411;28;20064;-61
2022/03/22 18:43:20;;;;;;;36.30;18.02;;;;;;;;;;5090344;28;20030;-61
2022/03/22 18:45:46;;;;;;;45.47;23.50;;;;;;;;;;5089899;28;20032;-61
2022/03/22 18:48:12;;;;;;;58.13;29.25;;;;;;;;;;5088832;28;20032;-62
2022/03/22 18:50:38;;;;;;;73.25;40.67;;;;;;;;;;5088702;28;20059;-61
2022/03/22 18:53:05;;;;;;;61.38;33.25;;;;;;;;;;5089510;28;20013;-62
2022/03/22 18:55:31;;;;;;;45.10;22.88;;;;;;;;;;5089450;28;20028;-61
2022/03/22 18:57:58;;;;;;;42.88;23.35;;;;;;;;;;5088856;28;20395;-60
2022/03/22 19:00:24;;;;;;;38.72;19.05;;;;;;;;;;5088821;28;20085;-61
2022/03/22 19:02:50;;;;;;;69.25;36.50;;;;;;;;;;5088989;28;20066;-62
2022/03/22 19:05:16;;;;;;;64.07;33.13;;;;;;;;;;5087444;28;20032;-61
2022/03/22 19:07:42;;;;;;;40.22;20.83;;;;;;;;;;5087915;28;20036;-61
2022/03/22 19:10:09;;;;;;;42.63;22.25;;;;;;;;;;5088013;28;20111;-61
2022/03/22 19:12:36;;;;;;;73.60;38.28;;;;;;;;;;5088392;28;20103;-62
2022/03/22 19:15:03;;;;;;;40.35;22.60;;;;;;;;;;5088534;28;20475;-61
2022/03/22 19:17:47;;;;;;;36.13;17.75;;;;;;;;;;5089210;28;20585;-62
2022/03/22 19:20:13;;;;;;;37.58;18.92;;;;;;;;;;5093957;28;20051;-62
2022/03/22 19:22:40;;;;;;;31.52;16.13;;;;;;;;;;5092583;28;20055;-63
2022/03/22 19:25:06;;;;;;;40.42;21.98;;;;;;;;;;5091337;28;20028;-62
2022/03/22 19:27:32;;;;;;;62.28;30.58;;;;;;;;;;5092256;28;20012;-62
2022/03/22 19:29:59;;;;;;;39.65;21.15;;;;;;;;;;5092435;28;20040;-62
2022/03/22 19:35:11;;;;;;;63.92;33.35;;;;;;;;;;5091729;28;20094;-62
2022/03/22 19:37:37;;;;;;;54.22;28.20;;;;;;;;;;5093060;28;20101;-61
2022/03/22 19:40:03;;;;;;;50.63;26.80;;;;;;;;;;5091995;28;20494;-61
2022/03/22 19:42:29;;;;;;;37.72;20.55;;;;;;;;;;5091862;28;20032;-62
2022/03/22 19:44:55;;;;;;;40.95;20.25;;;;;;;;;;5092680;28;20024;-61
2022/03/22 19:47:21;;;;;;;46.28;21.10;;;;;;;;;;5092805;28;20388;-61
2022/03/22 19:49:51;;;;;;;112.88;61.50;;;;;;;;;;5092646;28;20130;-61
2022/03/22 19:52:18;;;;;;;57.20;29.73;;;;;;;;;;5092773;28;20031;-62
2022/03/22 19:54:44;;;;;;;36.95;18.75;;;;;;;;;;5092932;28;20020;-61
2022/03/22 19:57:11;;;;;;;42.97;22.80;;;;;;;;;;5092109;28;20498;-64
2022/03/22 19:59:37;;;;;;;42.17;21.83;;;;;;;;;;5092545;28;20028;-60
2022/03/22 20:02:03;;;;;;;37.22;18.13;;;;;;;;;;5092286;28;20442;-61
2022/03/22 20:04:31;;;;;;;39.28;20.52;;;;;;;;;;5092471;28;20050;-61
2022/03/22 20:06:57;;;;;;;32.65;17.27;;;;;;;;;;5092563;28;20024;-61
2022/03/22 20:09:23;;;;;;;35.03;17.25;;;;;;;;;;5092636;28;20077;-62
2022/03/22 20:11:49;;;;;;;31.00;15.40;;;;;;;;;;5092601;28;20036;-61
2022/03/22 20:14:16;;;;;;;30.80;15.20;;;;;;;;;;5078459;28;20043;-60
2022/03/22 20:16:42;;;;;;;37.08;17.88;;;;;;;;;;5081937;28;20032;-60
2022/03/22 20:19:08;;;;;;;44.22;23.67;;;;;;;;;;5075356;28;20078;-61
2022/03/22 20:21:35;;;;;;;33.95;15.93;;;;;;;;;;5089076;28;20113;-61
2022/03/22 20:24:01;;;;;;;51.22;27.90;;;;;;;;;;5092167;28;20026;-61
2022/03/22 20:26:27;;;;;;;34.40;18.80;;;;;;;;;;5083641;28;20036;-61
2022/03/22 20:28:53;;;;;;;30.08;14.82;;;;;;;;;;5082794;28;20387;-60
2022/03/22 20:37:19;;;;;;;36.65;17.17;;;;;;;;;;5090744;28;20031;-62
2022/03/22 20:40:12;;;;;;;34.95;18.23;;;;;;;;;;5090196;28;20123;-61
2022/03/22 20:42:40;;;;;;;42.22;19.55;;;;;;;;;;5088685;28;20392;-60
2022/03/22 20:45:10;;;;;;;40.40;19.90;;;;;;;;;;5091546;28;20016;-60
2022/03/22 20:47:36;;;;;;;37.80;19.15;;;;;;;;;;5091446;28;20063;-62
2022/03/22 20:50:02;;;;;;;41.28;22.08;;;;;;;;;;5091653;28;20028;-60
2022/03/22 20:52:28;;;;;;;46.05;21.25;;;;;;;;;;5080545;28;20479;-59
2022/03/22 20:54:54;;;;;;;39.38;22.08;;;;;;;;;;5077474;28;20024;-60
2022/03/22 21:00:08;;;;;;;54.80;30.23;;;;;;;;;;5088623;28;20031;-59
2022/03/22 21:02:34;;;;;;;33.83;18.55;;;;;;;;;;5090809;28;20491;-61
2022/03/22 21:05:00;;;;;;;39.60;18.77;;;;;;;;;;5090342;28;20066;-60
2022/03/22 21:07:26;;;;;;;64.00;34.47;;;;;;;;;;5089770;28;20020;-61
2022/03/22 21:09:52;;;;;;;41.45;21.08;;;;;;;;;;5090106;28;20130;-59
2022/03/22 21:12:18;;;;;;;39.90;19.25;;;;;;;;;;5090677;28;20489;-60
2022/03/22 21:14:44;;;;;;;35.83;18.70;;;;;;;;;;5090713;28;20016;-62
2022/03/22 21:17:12;;;;;;;43.13;21.70;;;;;;;;;;5090431;28;20095;-61